createdAt,value
2018-07-20T00:00:54.179Z,99131.80
2018-07-20T00:03:22.914Z,99133.38
2018-07-20T00:05:51.656Z,99135.47
2018-07-20T00:08:20.364Z,99138.41
2018-07-20T00:10:49.082Z,99136.64
2018-07-20T00:13:17.866Z,99131.75
2018-07-20T00:15:46.722Z,99131.99
2018-07-20T00:18:15.457Z,99126.19
2018-07-20T00:20:44.161Z,99140.02
2018-07-20T00:23:12.875Z,99136.08
2018-07-20T00:25:41.653Z,99138.56
2018-07-20T00:28:10.368Z,99141.34
2018-07-20T00:30:39.083Z,99145.13
2018-07-20T00:33:07.782Z,99131.83
2018-07-20T00:35:36.489Z,99138.76
2018-07-20T00:38:05.404Z,99140.27
2018-07-20T00:40:34.105Z,99139.99
2018-07-20T00:43:02.821Z,99140.30
2018-07-20T00:45:31.541Z,99134.05
2018-07-20T00:48:00.246Z,99141.21
2018-07-20T00:50:29.000Z,99138.55
2018-07-20T00:52:57.724Z,99138.86
2018-07-20T00:55:26.451Z,99136.48
2018-07-20T00:57:55.170Z,99140.47
2018-07-20T01:00:23.860Z,99134.53
2018-07-20T01:02:52.800Z,99139.33
2018-07-20T01:05:21.569Z,99143.63
2018-07-20T01:07:50.274Z,99132.97
2018-07-20T01:10:19.185Z,99131.22
2018-07-20T01:12:47.999Z,99132.23
2018-07-20T01:15:16.725Z,99126.84
2018-07-20T01:17:45.476Z,99134.44
2018-07-20T01:20:14.309Z,99128.17
2018-07-20T01:22:43.013Z,99128.62
2018-07-20T01:25:11.710Z,99128.10
2018-07-20T01:27:40.741Z,99125.27
2018-07-20T01:30:09.441Z,99127.78
2018-07-20T01:32:38.149Z,99132.75
2018-07-20T01:35:06.914Z,99131.17
2018-07-20T01:37:35.616Z,99135.98
2018-07-20T01:40:04.563Z,99141.03
2018-07-20T01:42:33.290Z,99137.84
2018-07-20T01:45:02.021Z,99140.63
2018-07-20T01:47:30.824Z,99148.09
2018-07-20T01:49:59.537Z,99143.20
2018-07-20T01:52:28.317Z,99147.64
2018-07-20T01:54:57.017Z,99152.89
2018-07-20T01:57:25.797Z,99153.20
2018-07-20T01:59:54.523Z,99147.50
2018-07-20T02:02:23.233Z,99148.73
2018-07-20T02:04:52.018Z,99148.08
2018-07-20T02:07:20.745Z,99143.39
2018-07-20T02:09:49.546Z,99144.27
2018-07-20T02:12:18.322Z,99142.03
2018-07-20T02:14:48.231Z,99145.17
2018-07-20T02:17:17.025Z,99145.56
2018-07-20T02:19:45.730Z,99148.80
2018-07-20T02:22:14.433Z,99148.42
2018-07-20T02:24:43.609Z,99152.73
2018-07-20T02:27:12.310Z,99151.53
2018-07-20T02:29:41.012Z,99150.02
2018-07-20T02:32:09.734Z,99146.34
2018-07-20T02:34:38.461Z,99151.76
2018-07-20T02:37:07.229Z,99143.73
2018-07-20T02:39:35.961Z,99148.32
2018-07-20T02:42:04.679Z,99145.30
2018-07-20T02:44:33.492Z,99148.16
2018-07-20T02:47:02.223Z,99151.06
2018-07-20T02:49:30.905Z,99156.28
2018-07-20T02:51:59.650Z,99148.14
2018-07-20T02:54:28.370Z,99152.31
2018-07-20T02:56:57.094Z,99157.14
2018-07-20T02:59:25.812Z,99156.89
2018-07-20T03:01:54.590Z,99163.12
2018-07-20T03:04:23.323Z,99162.23
2018-07-20T03:06:52.033Z,99166.83
2018-07-20T03:09:20.737Z,99166.90
2018-07-20T03:11:49.463Z,99169.87
2018-07-20T03:14:18.180Z,99167.73
2018-07-20T03:16:46.901Z,99173.13
2018-07-20T03:19:15.618Z,99175.94
2018-07-20T03:21:44.354Z,99173.94
2018-07-20T03:24:13.052Z,99174.62
2018-07-20T03:26:41.781Z,99181.01
2018-07-20T03:29:10.527Z,99191.63
2018-07-20T03:31:39.226Z,99192.55
2018-07-20T03:34:07.942Z,99194.03
2018-07-20T03:36:36.820Z,99199.34
2018-07-20T03:39:07.793Z,99201.27
2018-07-20T03:41:37.013Z,99201.31
2018-07-20T03:44:05.716Z,99201.75
2018-07-20T03:46:34.439Z,99198.34
2018-07-20T03:49:03.202Z,99198.38
2018-07-20T03:51:31.968Z,99204.48
2018-07-20T03:54:00.680Z,99211.73
2018-07-20T03:56:29.559Z,99216.13
2018-07-20T03:58:58.398Z,99225.41
2018-07-20T04:01:27.097Z,99228.94
2018-07-20T04:03:55.813Z,99213.11
2018-07-20T04:06:24.509Z,99219.55
2018-07-20T04:08:53.218Z,99212.36
2018-07-20T04:11:21.937Z,99216.86
2018-07-20T04:13:50.657Z,99221.57
2018-07-20T04:16:19.468Z,99220.33
2018-07-20T04:18:48.245Z,99219.25
2018-07-20T04:21:16.994Z,99224.82
2018-07-20T04:23:45.729Z,99219.63
2018-07-20T04:26:14.466Z,99217.57
2018-07-20T04:28:43.218Z,99221.06
2018-07-20T04:31:12.048Z,99214.88
2018-07-20T04:33:40.751Z,99217.13
2018-07-20T04:36:09.499Z,99213.20
2018-07-20T04:38:38.205Z,99212.20
2018-07-20T04:41:06.932Z,99212.11
2018-07-20T04:43:35.638Z,99212.32
2018-07-20T04:46:04.357Z,99208.40
2018-07-20T04:48:33.081Z,99220.58
2018-07-20T04:51:01.813Z,99215.23
2018-07-20T04:53:30.522Z,99207.13
2018-07-20T04:55:59.223Z,99212.94
2018-07-20T04:58:27.938Z,99202.14
2018-07-20T05:00:56.638Z,99210.63
2018-07-20T05:03:25.459Z,99217.42
2018-07-20T05:05:54.426Z,99219.98
2018-07-20T05:08:23.360Z,99216.41
2018-07-20T05:10:52.069Z,99211.60
2018-07-20T05:13:20.774Z,99211.16
2018-07-20T05:15:49.842Z,99212.97
2018-07-20T05:18:18.578Z,99204.70
2018-07-20T05:20:47.291Z,99202.87
2018-07-20T05:23:15.994Z,99199.44
2018-07-20T05:25:44.739Z,99202.37
2018-07-20T05:28:13.446Z,99207.65
2018-07-20T05:30:42.168Z,99207.97
2018-07-20T05:33:10.902Z,99210.50
2018-07-20T05:35:39.746Z,99208.64
2018-07-20T05:38:08.521Z,99206.66
2018-07-20T05:40:37.216Z,99206.78
2018-07-20T05:43:05.941Z,99211.77
2018-07-20T05:45:34.689Z,99211.81
2018-07-20T05:48:03.508Z,99214.58
2018-07-20T05:50:32.229Z,99225.78
2018-07-20T05:53:00.931Z,99216.28
2018-07-20T05:55:29.653Z,99216.05
2018-07-20T05:57:58.361Z,99217.81
2018-07-20T06:00:27.073Z,99215.74
2018-07-20T06:02:55.806Z,99215.73
2018-07-20T06:05:24.493Z,99218.19
2018-07-20T06:07:53.191Z,99207.60
2018-07-20T06:10:21.913Z,99216.66
2018-07-20T06:12:50.621Z,99210.28
2018-07-20T06:15:19.587Z,99217.13
2018-07-20T06:17:48.814Z,99207.27
2018-07-20T06:20:17.538Z,99204.27
2018-07-20T06:22:46.300Z,99208.77
2018-07-20T06:25:15.021Z,99211.20
2018-07-20T06:27:43.758Z,99218.30
2018-07-20T06:30:12.477Z,99215.49
2018-07-20T06:32:41.173Z,99216.37
2018-07-20T06:35:09.883Z,99215.66
2018-07-20T06:37:38.606Z,99218.38
2018-07-20T06:40:07.402Z,99215.77
2018-07-20T06:42:36.213Z,99220.37
2018-07-20T06:45:05.787Z,99215.80
2018-07-20T06:47:34.631Z,99218.16
2018-07-20T06:50:07.417Z,99218.48
2018-07-20T06:52:36.130Z,99222.09
2018-07-20T06:55:04.924Z,99227.94
2018-07-20T06:57:33.652Z,99230.52
2018-07-20T07:00:02.379Z,99225.48
2018-07-20T07:02:31.151Z,99230.11
2018-07-20T07:04:59.891Z,99235.09
2018-07-20T07:07:28.648Z,99234.09
2018-07-20T07:09:57.467Z,99219.34
2018-07-20T07:12:26.189Z,99229.04
2018-07-20T07:14:54.934Z,99218.25
2018-07-20T07:17:23.608Z,99225.36
2018-07-20T07:19:52.306Z,99232.53
2018-07-20T07:22:21.092Z,99231.46
2018-07-20T07:24:49.906Z,99239.13
2018-07-20T07:27:18.770Z,99233.30
2018-07-20T07:29:47.502Z,99238.42
2018-07-20T07:32:16.233Z,99242.41
2018-07-20T07:34:44.927Z,99241.61
2018-07-20T07:37:13.669Z,99252.94
2018-07-20T07:39:42.396Z,99250.86
2018-07-20T07:42:11.149Z,99256.03
2018-07-20T07:44:39.910Z,99253.52
2018-07-20T07:47:08.651Z,99253.45
2018-07-20T07:49:37.483Z,99254.24
2018-07-20T07:52:06.521Z,99263.59
2018-07-20T07:54:35.221Z,99261.20
2018-07-20T07:57:03.955Z,99258.62
2018-07-20T07:59:32.840Z,99255.45
2018-07-20T08:02:01.801Z,99255.16
2018-07-20T08:04:30.825Z,99266.66
2018-07-20T08:06:59.549Z,99258.91
2018-07-20T08:09:28.274Z,99264.35
2018-07-20T08:11:56.973Z,99265.77
2018-07-20T08:14:25.695Z,99263.61
2018-07-20T08:16:54.390Z,99259.03
2018-07-20T08:19:23.086Z,99272.44
2018-07-20T08:21:51.793Z,99264.42
2018-07-20T08:24:20.490Z,99265.02
2018-07-20T08:26:49.232Z,99264.16
2018-07-20T08:29:18.719Z,99259.67
2018-07-20T08:31:47.449Z,99262.52
2018-07-20T08:34:16.254Z,99256.72
2018-07-20T08:36:44.997Z,99251.66
2018-07-20T08:39:14.301Z,99263.32
2018-07-20T08:41:43.361Z,99258.36
2018-07-20T08:44:12.425Z,99249.61
2018-07-20T08:46:41.586Z,99248.69
2018-07-20T08:49:10.843Z,99251.52
2018-07-20T08:51:39.912Z,99255.16
2018-07-20T08:54:08.659Z,99258.84
2018-07-20T08:56:37.519Z,99253.84
2018-07-20T08:59:06.539Z,99249.89
2018-07-20T09:01:35.207Z,99245.42
2018-07-20T09:04:03.954Z,99248.16
2018-07-20T09:06:32.686Z,99240.91
2018-07-20T09:09:01.386Z,99243.08
2018-07-20T09:11:30.089Z,99251.63
2018-07-20T09:13:58.891Z,99243.70
2018-07-20T09:16:27.556Z,99252.44
2018-07-20T09:18:56.262Z,99245.22
2018-07-20T09:21:25.019Z,99241.22
2018-07-20T09:23:53.715Z,99241.85
2018-07-20T09:26:22.414Z,99243.80
2018-07-20T09:28:51.141Z,99241.56
2018-07-20T09:31:19.918Z,99248.66
2018-07-20T09:33:48.705Z,99240.95
2018-07-20T09:36:17.417Z,99240.70
2018-07-20T09:38:46.161Z,99230.66
2018-07-20T09:41:14.913Z,99236.75
2018-07-20T09:43:43.605Z,99234.10
2018-07-20T09:46:12.333Z,99233.05
2018-07-20T09:48:41.053Z,99235.96
2018-07-20T09:51:09.747Z,99235.85
2018-07-20T09:53:38.438Z,99226.47
2018-07-20T09:56:08.042Z,99235.83
2018-07-20T09:58:36.746Z,99229.96
2018-07-20T10:01:05.606Z,99221.91
2018-07-20T10:03:34.337Z,99228.74
2018-07-20T10:06:03.742Z,99230.13
2018-07-20T10:08:32.476Z,99234.02
2018-07-20T10:11:01.188Z,99230.48
2018-07-20T10:13:29.942Z,99226.14
2018-07-20T10:15:58.641Z,99226.81
2018-07-20T10:18:27.484Z,99226.31
2018-07-20T10:20:56.172Z,99232.05
2018-07-20T10:23:24.878Z,99225.34
2018-07-20T10:25:53.588Z,99225.64
2018-07-20T10:28:22.411Z,99210.36
2018-07-20T10:30:51.175Z,99214.59
2018-07-20T10:33:19.942Z,99218.98
2018-07-20T10:35:48.822Z,99219.12
2018-07-20T10:38:17.545Z,99222.69
2018-07-20T10:40:46.254Z,99209.78
2018-07-20T10:43:15.139Z,99210.58
2018-07-20T10:45:43.878Z,99217.04
2018-07-20T10:48:12.596Z,99221.88
2018-07-20T10:50:41.364Z,99211.92
2018-07-20T10:53:10.062Z,99210.55
2018-07-20T10:55:38.793Z,99211.58
2018-07-20T10:58:07.511Z,99213.09
2018-07-20T11:00:36.229Z,99203.95
2018-07-20T11:03:04.944Z,99204.37
2018-07-20T11:05:33.670Z,99208.34
2018-07-20T11:08:02.392Z,99200.44
2018-07-20T11:10:31.125Z,99200.03
2018-07-20T11:12:59.898Z,99205.55
2018-07-20T11:15:28.625Z,99194.39
2018-07-20T11:17:57.354Z,99199.43
2018-07-20T11:20:26.167Z,99199.48
2018-07-20T11:22:54.851Z,99205.73
2018-07-20T11:25:23.552Z,99206.56
2018-07-20T11:27:52.304Z,99205.34
2018-07-20T11:30:21.032Z,99208.19
2018-07-20T11:32:49.803Z,99199.63
2018-07-20T11:35:18.520Z,99197.64
2018-07-20T11:37:47.629Z,99198.44
2018-07-20T11:40:16.357Z,99194.80
2018-07-20T11:42:45.063Z,99198.64
2018-07-20T11:45:13.752Z,99196.88
2018-07-20T11:47:42.601Z,99196.95
2018-07-20T11:50:11.310Z,99194.19
2018-07-20T11:52:40.050Z,99189.90
2018-07-20T11:55:08.750Z,99184.59
2018-07-20T11:57:37.450Z,99188.45
2018-07-20T12:00:06.845Z,99190.63
2018-07-20T12:02:35.959Z,99193.20
2018-07-20T12:05:05.450Z,99191.94
2018-07-20T12:07:34.526Z,99185.28
2018-07-20T12:10:03.758Z,99181.97
2018-07-20T12:12:32.746Z,99183.88
2018-07-20T12:15:01.934Z,99181.77
2018-07-20T12:17:31.195Z,99177.83
2018-07-20T12:20:00.439Z,99173.16
2018-07-20T12:22:29.738Z,99183.27
2018-07-20T12:24:58.986Z,99167.95
2018-07-20T12:27:28.150Z,99166.99
2018-07-20T12:29:57.339Z,99161.98
2018-07-20T12:32:26.533Z,99161.19
2018-07-20T12:34:55.631Z,99165.37
2018-07-20T12:37:24.942Z,99168.81
2018-07-20T12:39:54.269Z,99171.19
2018-07-20T12:42:23.568Z,99173.13
2018-07-20T12:44:52.735Z,99170.37
2018-07-20T12:47:21.924Z,99175.03
2018-07-20T12:49:51.142Z,99175.53
2018-07-20T12:52:20.399Z,99171.73
2018-07-20T12:54:49.653Z,99174.28
2018-07-20T12:57:18.926Z,99171.37
2018-07-20T12:59:48.425Z,99173.86
2018-07-20T13:02:17.638Z,99168.86
2018-07-20T13:04:46.842Z,99171.06
2018-07-20T13:07:16.070Z,99166.16
2018-07-20T13:09:45.301Z,99164.91
2018-07-20T13:12:14.448Z,99160.61
2018-07-20T13:14:43.432Z,99157.64
2018-07-20T13:17:12.617Z,99158.27
2018-07-20T13:19:41.848Z,99159.48
2018-07-20T13:22:11.018Z,99161.33
2018-07-20T13:24:40.230Z,99164.79
2018-07-20T13:27:09.537Z,99168.61
2018-07-20T13:29:38.709Z,99163.78
2018-07-20T13:32:07.918Z,99162.58
2018-07-20T13:34:37.207Z,99158.93
2018-07-20T13:37:06.512Z,99153.00
2018-07-20T13:39:35.728Z,99157.21
2018-07-20T13:42:04.908Z,99153.28
2018-07-20T13:44:34.112Z,99151.39
2018-07-20T13:47:03.305Z,99147.34
2018-07-20T13:49:32.393Z,99143.80
2018-07-20T13:52:01.653Z,99142.00
2018-07-20T13:54:30.599Z,99138.66
2018-07-20T13:56:59.815Z,99116.13
2018-07-20T13:59:28.882Z,99137.66
2018-07-20T14:01:58.071Z,99138.66
2018-07-20T14:04:27.442Z,99141.09
2018-07-20T14:06:56.697Z,99131.83
2018-07-20T14:09:26.004Z,99134.89
2018-07-20T14:11:55.299Z,99135.92
2018-07-20T14:14:24.487Z,99133.69
2018-07-20T14:16:53.734Z,99133.09
2018-07-20T14:19:23.001Z,99143.56
2018-07-20T14:21:52.267Z,99145.73
2018-07-20T14:24:21.377Z,99145.11
2018-07-20T14:26:50.565Z,99143.39
2018-07-20T14:29:20.068Z,99145.91
2018-07-20T14:31:49.318Z,99147.41
2018-07-20T14:34:18.372Z,99151.73
2018-07-20T14:36:47.572Z,99148.56
2018-07-20T14:39:16.775Z,99154.19
2018-07-20T14:41:46.166Z,99155.83
2018-07-20T14:44:15.370Z,99151.00
2018-07-20T14:46:44.678Z,99151.89
2018-07-20T14:49:14.078Z,99152.73
2018-07-20T14:51:43.188Z,99158.02
2018-07-20T14:54:12.419Z,99159.42
2018-07-20T14:56:41.569Z,99154.52
2018-07-20T14:59:10.891Z,99157.81
2018-07-20T15:01:39.973Z,99157.43
2018-07-20T15:04:12.200Z,99160.94
2018-07-20T15:06:44.839Z,99158.68
2018-07-20T15:09:17.227Z,99161.27
2018-07-20T15:11:49.680Z,99159.09
2018-07-20T15:14:21.370Z,99168.88
2018-07-20T15:16:54.241Z,99166.70
2018-07-20T15:19:27.233Z,99157.56
2018-07-20T15:22:00.174Z,99163.40
2018-07-20T15:24:33.332Z,99159.96
2018-07-20T15:27:06.049Z,99157.13
2018-07-20T15:29:39.570Z,99152.88
2018-07-20T15:32:11.544Z,99153.52
2018-07-20T15:34:44.210Z,99155.84
2018-07-20T15:37:17.148Z,99160.53
2018-07-20T15:39:49.749Z,99159.06
2018-07-20T15:42:22.275Z,99162.33
2018-07-20T15:44:54.789Z,99156.91
2018-07-20T15:47:27.996Z,99173.10
2018-07-20T15:50:01.081Z,99165.19
2018-07-20T15:55:06.719Z,99171.03
2018-07-20T15:57:39.838Z,99172.30
2018-07-20T16:00:13.472Z,99173.60
2018-07-20T16:02:46.232Z,99172.65
2018-07-20T16:05:19.442Z,99172.35
2018-07-20T16:07:51.557Z,99177.48
2018-07-20T16:10:23.939Z,99180.20
2018-07-20T16:12:56.105Z,99183.77
2018-07-20T16:15:28.369Z,99185.22
2018-07-20T16:18:00.540Z,99194.95
2018-07-20T16:20:32.669Z,99192.25
2018-07-20T16:23:04.650Z,99194.80
2018-07-20T16:25:36.990Z,99192.98
2018-07-20T16:28:09.081Z,99196.81
2018-07-20T16:30:42.127Z,99195.95
2018-07-20T16:33:14.560Z,99199.20
2018-07-20T16:35:46.706Z,99201.44
2018-07-20T16:38:18.564Z,99208.39
2018-07-20T16:40:51.026Z,99214.70
2018-07-20T16:43:23.408Z,99217.28
2018-07-20T16:45:55.580Z,99217.00
2018-07-20T16:48:24.829Z,99215.12
2018-07-20T16:50:54.005Z,99219.30
2018-07-20T16:53:23.298Z,99220.71
2018-07-20T16:55:52.553Z,99220.64
2018-07-20T16:58:21.927Z,99221.52
2018-07-20T17:00:51.127Z,99229.28
2018-07-20T17:03:20.356Z,99229.53
2018-07-20T17:05:49.445Z,99229.13
2018-07-20T17:08:18.950Z,99232.50
2018-07-20T17:10:48.135Z,99235.62
2018-07-20T17:13:17.327Z,99231.50
2018-07-20T17:15:46.417Z,99233.80
2018-07-20T17:18:15.514Z,99233.58
2018-07-20T17:20:44.634Z,99239.44
2018-07-20T17:23:13.827Z,99243.80
2018-07-20T17:25:43.063Z,99249.55
2018-07-20T17:28:12.291Z,99244.56
2018-07-20T17:30:41.401Z,99255.66
2018-07-20T17:33:10.366Z,99260.92
2018-07-20T17:35:39.465Z,99259.51
2018-07-20T17:38:08.493Z,99261.53
2018-07-20T17:40:37.626Z,99255.98
2018-07-20T17:43:06.957Z,99251.11
2018-07-20T17:45:35.786Z,99247.07
2018-07-20T17:48:04.990Z,99251.25
2018-07-20T17:50:34.277Z,99239.98
2018-07-20T17:53:03.618Z,99239.00
2018-07-20T17:55:32.373Z,99239.27
2018-07-20T17:58:01.086Z,99244.19
2018-07-20T18:00:29.822Z,99253.60
2018-07-20T18:02:58.534Z,99251.53
2018-07-20T18:05:27.296Z,99251.25
2018-07-20T18:07:56.644Z,99256.30
2018-07-20T18:10:25.945Z,99261.84
2018-07-20T18:12:55.154Z,99264.30
2018-07-20T18:15:23.919Z,99260.15
2018-07-20T18:17:53.130Z,99266.81
2018-07-20T18:20:22.244Z,99269.89
2018-07-20T18:22:51.316Z,99269.63
2018-07-20T18:25:20.571Z,99274.14
2018-07-20T18:27:49.797Z,99273.44
2018-07-20T18:30:19.008Z,99279.42
2018-07-20T18:32:48.213Z,99285.00
2018-07-20T18:35:17.416Z,99291.63
2018-07-20T18:37:46.364Z,99294.13
2018-07-20T18:40:15.524Z,99296.16
2018-07-20T18:42:44.316Z,99299.23
2018-07-20T18:45:13.092Z,99302.30
2018-07-20T18:47:41.853Z,99309.36
2018-07-20T18:50:11.375Z,99306.21
2018-07-20T18:52:40.153Z,99312.11
2018-07-20T18:55:08.926Z,99319.59
2018-07-20T18:57:37.650Z,99314.86
2018-07-20T19:00:06.786Z,99322.25
2018-07-20T19:02:35.573Z,99320.16
2018-07-20T19:05:04.270Z,99321.53
2018-07-20T19:07:33.029Z,99323.47
2018-07-20T19:10:02.293Z,99320.97
2018-07-20T19:12:31.509Z,99326.69
2018-07-20T19:15:00.627Z,99326.12
2018-07-20T19:17:29.730Z,99329.75
2018-07-20T19:19:58.760Z,99330.28
2018-07-20T19:22:27.980Z,99331.27
2018-07-20T19:24:57.480Z,99329.75
2018-07-20T19:27:26.837Z,99330.03
2018-07-20T19:29:56.085Z,99332.10
2018-07-20T19:32:25.297Z,99324.10
2018-07-20T19:34:54.454Z,99326.41
2018-07-20T19:37:23.705Z,99327.35
2018-07-20T19:39:52.877Z,99326.06
2018-07-20T19:42:22.314Z,99324.94
2018-07-20T19:44:51.520Z,99330.17
2018-07-20T19:47:20.669Z,99330.73
2018-07-20T19:49:49.861Z,99325.34
2018-07-20T19:52:19.139Z,99330.06
2018-07-20T19:54:48.259Z,99329.91
2018-07-20T19:57:17.362Z,99322.30
2018-07-20T19:59:46.597Z,99329.47
2018-07-20T20:02:15.805Z,99327.91
2018-07-20T20:04:45.080Z,99332.38
2018-07-20T20:07:14.155Z,99330.70
2018-07-20T20:09:43.186Z,99334.89
2018-07-20T20:12:12.264Z,99329.86
2018-07-20T20:14:41.927Z,99334.60
2018-07-20T20:17:11.177Z,99345.50
2018-07-20T20:19:40.152Z,99346.11
2018-07-20T20:22:09.369Z,99346.71
2018-07-20T20:24:38.600Z,99349.16
2018-07-20T20:27:07.982Z,99352.33
2018-07-20T20:29:37.269Z,99353.05
2018-07-20T20:32:06.556Z,99350.64
2018-07-20T20:34:36.036Z,99353.37
2018-07-20T20:37:05.370Z,99357.68
2018-07-20T20:39:35.054Z,99359.89
2018-07-20T20:42:07.462Z,99362.77
2018-07-20T20:44:39.032Z,99369.09
2018-07-20T20:47:10.689Z,99370.17
2018-07-20T20:49:40.980Z,99381.04
2018-07-20T20:52:12.580Z,99375.33
2018-07-20T20:54:42.344Z,99382.09
2018-07-20T20:57:13.162Z,99383.83
2018-07-20T20:59:44.820Z,99382.30
2018-07-20T21:02:16.149Z,99381.64
2018-07-20T21:04:47.467Z,99382.77
2018-07-20T21:07:18.460Z,99382.03
2018-07-20T21:09:47.937Z,99387.29
2018-07-20T21:12:17.204Z,99388.34
2018-07-20T21:14:46.241Z,99387.02
2018-07-20T21:17:15.441Z,99387.75
2018-07-20T21:19:44.737Z,99390.48
2018-07-20T21:22:13.972Z,99396.76
2018-07-20T21:24:43.149Z,99394.44
2018-07-20T21:27:12.176Z,99393.59
2018-07-20T21:29:43.630Z,99387.19
2018-07-20T21:32:12.690Z,99392.34
2018-07-20T21:34:41.950Z,99391.56
2018-07-20T21:37:11.301Z,99387.75
2018-07-20T21:39:40.566Z,99383.72
2018-07-20T21:42:09.705Z,99387.67
2018-07-20T21:44:38.885Z,99383.52
2018-07-20T21:47:07.980Z,99383.69
2018-07-20T21:49:37.262Z,99381.27
2018-07-20T21:52:06.377Z,99384.09
2018-07-20T21:54:35.406Z,99384.59
2018-07-20T21:57:04.583Z,99380.56
2018-07-20T21:59:33.775Z,99379.81
2018-07-20T22:02:02.974Z,99380.31
2018-07-20T22:04:32.058Z,99382.08
2018-07-20T22:07:01.163Z,99378.33
2018-07-20T22:09:30.347Z,99375.31
2018-07-20T22:11:59.166Z,99381.83
2018-07-20T22:14:27.893Z,99377.77
2018-07-20T22:16:56.655Z,99378.41
2018-07-20T22:19:25.360Z,99371.16
2018-07-20T22:21:54.205Z,99376.14
2018-07-20T22:24:23.026Z,99376.01
2018-07-20T22:26:51.933Z,99370.14
2018-07-20T22:29:20.881Z,99377.23
2018-07-20T22:31:49.602Z,99374.09
2018-07-20T22:34:18.329Z,99378.48
2018-07-20T22:36:47.084Z,99373.20
2018-07-20T22:39:15.809Z,99382.41
2018-07-20T22:41:44.540Z,99378.13
2018-07-20T22:44:13.263Z,99379.27
2018-07-20T22:46:42.006Z,99383.27
2018-07-20T22:49:10.777Z,99378.95
2018-07-20T22:51:39.536Z,99382.91
2018-07-20T22:54:08.237Z,99390.63
2018-07-20T22:56:36.974Z,99390.01
2018-07-20T22:59:05.866Z,99392.86
2018-07-20T23:01:34.565Z,99391.77
2018-07-20T23:04:03.310Z,99402.41
2018-07-20T23:06:32.050Z,99394.30
2018-07-20T23:09:00.805Z,99393.99
2018-07-20T23:11:29.529Z,99395.41
2018-07-20T23:13:58.314Z,99395.66
2018-07-20T23:16:27.069Z,99398.64
2018-07-20T23:18:55.960Z,99400.00
2018-07-20T23:21:24.947Z,99395.35
2018-07-20T23:23:53.678Z,99390.96
2018-07-20T23:26:22.456Z,99396.14
2018-07-20T23:28:51.195Z,99387.05
2018-07-20T23:31:19.953Z,99385.91
2018-07-20T23:33:49.203Z,99384.55
2018-07-20T23:36:18.384Z,99383.92
2018-07-20T23:38:47.613Z,99387.28
2018-07-20T23:41:16.775Z,99394.13
2018-07-20T23:43:45.982Z,99390.76
2018-07-20T23:46:15.190Z,99392.42
2018-07-20T23:48:44.480Z,99393.86
2018-07-20T23:51:13.734Z,99392.03
2018-07-20T23:53:43.071Z,99389.32
2018-07-20T23:56:12.370Z,99396.69
2018-07-20T23:58:41.090Z,99393.14
